sensor_id;sensor_type;location;lat;lon;timestamp;pressure;altitude;pressure_sealevel;temperature;humidity
80393;BME280;69719;45.544;10.218;2024-01-07T00:01:49;98296.88;;;8.08;100.00
80393;BME280;69719;45.544;10.218;2024-01-07T00:04:15;98292.47;;;8.08;100.00
80393;BME280;69719;45.544;10.218;2024-01-07T00:06:41;98292.00;;;8.11;100.00
80393;BME280;69719;45.544;10.218;2024-01-07T00:09:06;98289.09;;;8.08;100.00
80393;BME280;69719;45.544;10.218;2024-01-07T00:11:32;98289.50;;;8.00;100.00
80393;BME280;69719;45.544;10.218;2024-01-07T00:13:57;98294.97;;;8.03;100.00
80393;BME280;69719;45.544;10.218;2024-01-07T00:16:23;98294.91;;;7.98;100.00
80393;BME280;69719;45.544;10.218;2024-01-07T00:18:49;98303.97;;;8.17;100.00
80393;BME280;69719;45.544;10.218;2024-01-07T00:21:14;98296.16;;;8.12;100.00
80393;BME280;69719;45.544;10.218;2024-01-07T00:23:40;98305.72;;;8.12;100.00
80393;BME280;69719;45.544;10.218;2024-01-07T00:26:05;98302.59;;;8.10;100.00
80393;BME280;69719;45.544;10.218;2024-01-07T00:28:32;98297.09;;;8.06;100.00
80393;BME280;69719;45.544;10.218;2024-01-07T00:30:57;98309.72;;;8.03;100.00
80393;BME280;69719;45.544;10.218;2024-01-07T00:33:23;98308.88;;;7.97;100.00
80393;BME280;69719;45.544;10.218;2024-01-07T00:35:48;98312.31;;;8.03;100.00
80393;BME280;69719;45.544;10.218;2024-01-07T00:38:14;98309.81;;;8.08;100.00
80393;BME280;69719;45.544;10.218;2024-01-07T00:40:39;98322.06;;;8.29;100.00
80393;BME280;69719;45.544;10.218;2024-01-07T00:43:05;98322.69;;;8.36;100.00
80393;BME280;69719;45.544;10.218;2024-01-07T00:45:30;98324.63;;;8.45;100.00
80393;BME280;69719;45.544;10.218;2024-01-07T00:47:56;98324.28;;;8.59;100.00
80393;BME280;69719;45.544;10.218;2024-01-07T00:50:21;98323.50;;;8.58;100.00
80393;BME280;69719;45.544;10.218;2024-01-07T00:52:47;98326.47;;;8.67;100.00
80393;BME280;69719;45.544;10.218;2024-01-07T00:55:12;98331.66;;;8.67;100.00
80393;BME280;69719;45.544;10.218;2024-01-07T00:57:38;98333.06;;;8.57;100.00
80393;BME280;69719;45.544;10.218;2024-01-07T01:00:07;98339.56;;;8.55;100.00
80393;BME280;69719;45.544;10.218;2024-01-07T01:02:33;98339.00;;;8.75;100.00
80393;BME280;69719;45.544;10.218;2024-01-07T01:04:58;98344.81;;;8.82;100.00
80393;BME280;69719;45.544;10.218;2024-01-07T01:07:24;98350.06;;;8.87;100.00
80393;BME280;69719;45.544;10.218;2024-01-07T01:09:49;98351.53;;;8.99;100.00
80393;BME280;69719;45.544;10.218;2024-01-07T01:12:15;98350.13;;;8.92;100.00
80393;BME280;69719;45.544;10.218;2024-01-07T01:14:41;98352.50;;;8.93;100.00
80393;BME280;69719;45.544;10.218;2024-01-07T01:17:06;98356.34;;;8.91;100.00
80393;BME280;69719;45.544;10.218;2024-01-07T01:19:32;98354.09;;;8.78;100.00
80393;BME280;69719;45.544;10.218;2024-01-07T01:21:57;98358.81;;;8.81;100.00
80393;BME280;69719;45.544;10.218;2024-01-07T01:24:23;98361.47;;;8.86;100.00
80393;BME280;69719;45.544;10.218;2024-01-07T01:26:49;98357.78;;;8.82;100.00
80393;BME280;69719;45.544;10.218;2024-01-07T01:29:14;98354.66;;;8.80;100.00
80393;BME280;69719;45.544;10.218;2024-01-07T01:31:40;98355.69;;;8.79;100.00
80393;BME280;69719;45.544;10.218;2024-01-07T01:34:05;98349.88;;;8.72;100.00
80393;BME280;69719;45.544;10.218;2024-01-07T01:36:31;98354.41;;;8.81;100.00
80393;BME280;69719;45.544;10.218;2024-01-07T01:38:57;98368.53;;;8.90;100.00
80393;BME280;69719;45.544;10.218;2024-01-07T01:41:23;98361.47;;;8.86;100.00
80393;BME280;69719;45.544;10.218;2024-01-07T01:43:48;98354.56;;;8.75;100.00
80393;BME280;69719;45.544;10.218;2024-01-07T01:46:14;98355.38;;;8.97;100.00
80393;BME280;69719;45.544;10.218;2024-01-07T01:48:40;98365.88;;;8.85;100.00
80393;BME280;69719;45.544;10.218;2024-01-07T01:51:06;98355.06;;;8.72;100.00
80393;BME280;69719;45.544;10.218;2024-01-07T01:53:33;98350.88;;;8.71;100.00
80393;BME280;69719;45.544;10.218;2024-01-07T01:56:00;98352.25;;;8.57;100.00
80393;BME280;69719;45.544;10.218;2024-01-07T01:58:28;98367.84;;;8.40;100.00
80393;BME280;69719;45.544;10.218;2024-01-07T02:00:54;98367.47;;;8.31;100.00
80393;BME280;69719;45.544;10.218;2024-01-07T02:03:20;98354.22;;;8.49;100.00
80393;BME280;69719;45.544;10.218;2024-01-07T02:05:45;98359.75;;;8.75;100.00
80393;BME280;69719;45.544;10.218;2024-01-07T02:08:13;98356.63;;;8.73;100.00
80393;BME280;69719;45.544;10.218;2024-01-07T02:10:39;98372.16;;;8.51;100.00
80393;BME280;69719;45.544;10.218;2024-01-07T02:13:04;98359.66;;;8.48;100.00
80393;BME280;69719;45.544;10.218;2024-01-07T02:15:30;98358.53;;;8.61;100.00
80393;BME280;69719;45.544;10.218;2024-01-07T02:17:56;98364.81;;;8.65;100.00
80393;BME280;69719;45.544;10.218;2024-01-07T02:20:22;98366.88;;;8.46;100.00
80393;BME280;69719;45.544;10.218;2024-01-07T02:22:47;98366.34;;;8.44;100.00
80393;BME280;69719;45.544;10.218;2024-01-07T02:25:13;98374.56;;;8.41;100.00
80393;BME280;69719;45.544;10.218;2024-01-07T02:27:38;98377.72;;;8.60;100.00
80393;BME280;69719;45.544;10.218;2024-01-07T02:30:04;98370.28;;;8.46;100.00
80393;BME280;69719;45.544;10.218;2024-01-07T02:32:30;98368.22;;;8.48;100.00
80393;BME280;69719;45.544;10.218;2024-01-07T02:34:59;98368.22;;;8.48;100.00
80393;BME280;69719;45.544;10.218;2024-01-07T02:37:25;98374.41;;;8.47;100.00
80393;BME280;69719;45.544;10.218;2024-01-07T02:39:50;98376.16;;;8.42;100.00
80393;BME280;69719;45.544;10.218;2024-01-07T02:42:16;98373.19;;;8.33;100.00
80393;BME280;69719;45.544;10.218;2024-01-07T02:44:41;98381.81;;;8.39;100.00
80393;BME280;69719;45.544;10.218;2024-01-07T02:47:07;98377.72;;;8.60;100.00
80393;BME280;69719;45.544;10.218;2024-01-07T02:49:32;98376.31;;;8.52;100.00
80393;BME280;69719;45.544;10.218;2024-01-07T02:51:58;98372.22;;;8.39;100.00
80393;BME280;69719;45.544;10.218;2024-01-07T02:54:23;98371.13;;;8.35;100.00
80393;BME280;69719;45.544;10.218;2024-01-07T02:56:49;98370.81;;;8.32;100.00
80393;BME280;69719;45.544;10.218;2024-01-07T02:59:14;98368.47;;;8.30;100.00
80393;BME280;69719;45.544;10.218;2024-01-07T03:01:40;98374.34;;;8.26;100.00
80393;BME280;69719;45.544;10.218;2024-01-07T03:04:07;98369.72;;;8.28;100.00
80393;BME280;69719;45.544;10.218;2024-01-07T03:06:33;98370.03;;;8.31;100.00
80393;BME280;69719;45.544;10.218;2024-01-07T03:08:58;98370.75;;;8.27;100.00
80393;BME280;69719;45.544;10.218;2024-01-07T03:11:24;98372.97;;;8.23;100.00
80393;BME280;69719;45.544;10.218;2024-01-07T03:13:49;98376.59;;;8.22;100.00
80393;BME280;69719;45.544;10.218;2024-01-07T03:16:22;98367.03;;;8.23;100.00
80393;BME280;69719;45.544;10.218;2024-01-07T03:18:48;98368.44;;;8.14;100.00
80393;BME280;69719;45.544;10.218;2024-01-07T03:21:20;98376.47;;;8.12;100.00
80393;BME280;69719;45.544;10.218;2024-01-07T03:23:47;98381.69;;;8.17;100.00
80393;BME280;69719;45.544;10.218;2024-01-07T03:26:13;98383.69;;;8.10;100.00
80393;BME280;69719;45.544;10.218;2024-01-07T03:28:39;98388.53;;;8.07;100.00
80393;BME280;69719;45.544;10.218;2024-01-07T03:31:09;98385.06;;;8.01;100.00
80393;BME280;69719;45.544;10.218;2024-01-07T03:33:39;98378.31;;;8.00;100.00
80393;BME280;69719;45.544;10.218;2024-01-07T03:36:08;98384.75;;;7.98;100.00
80393;BME280;69719;45.544;10.218;2024-01-07T03:38:35;98378.47;;;7.94;100.00
80393;BME280;69719;45.544;10.218;2024-01-07T03:41:01;98384.44;;;7.94;100.00
80393;BME280;69719;45.544;10.218;2024-01-07T03:43:27;98384.44;;;7.94;100.00
80393;BME280;69719;45.544;10.218;2024-01-07T03:45:53;98385.13;;;7.90;100.00
80393;BME280;69719;45.544;10.218;2024-01-07T03:48:18;98383.34;;;7.90;100.00
80393;BME280;69719;45.544;10.218;2024-01-07T03:50:44;98378.31;;;7.84;100.00
80393;BME280;69719;45.544;10.218;2024-01-07T03:53:10;98379.88;;;7.85;100.00
80393;BME280;69719;45.544;10.218;2024-01-07T03:55:36;98379.34;;;7.83;100.00
80393;BME280;69719;45.544;10.218;2024-01-07T03:58:01;98380.44;;;7.87;100.00
80393;BME280;69719;45.544;10.218;2024-01-07T04:00:28;98381.19;;;7.87;100.00
80393;BME280;69719;45.544;10.218;2024-01-07T04:02:53;98370.47;;;7.95;100.00
80393;BME280;69719;45.544;10.218;2024-01-07T04:05:19;98382.88;;;7.93;100.00
80393;BME280;69719;45.544;10.218;2024-01-07T04:07:45;98376.66;;;7.94;100.00
80393;BME280;69719;45.544;10.218;2024-01-07T04:10:10;98378.69;;;7.92;100.00
80393;BME280;69719;45.544;10.218;2024-01-07T04:12:36;98379.34;;;7.99;100.00
80393;BME280;69719;45.544;10.218;2024-01-07T04:15:02;98371.97;;;7.91;100.00
80393;BME280;69719;45.544;10.218;2024-01-07T04:17:28;98375.13;;;7.93;100.00
80393;BME280;69719;45.544;10.218;2024-01-07T04:19:54;98376.28;;;8.02;100.00
80393;BME280;69719;45.544;10.218;2024-01-07T04:22:20;98379.09;;;8.01;100.00
80393;BME280;69719;45.544;10.218;2024-01-07T04:24:45;98381.94;;;7.99;100.00
80393;BME280;69719;45.544;10.218;2024-01-07T04:27:11;98372.19;;;8.06;100.00
80393;BME280;69719;45.544;10.218;2024-01-07T04:29:39;98376.91;;;8.09;100.00
80393;BME280;69719;45.544;10.218;2024-01-07T04:32:05;98359.63;;;7.98;100.00
80393;BME280;69719;45.544;10.218;2024-01-07T04:34:30;98382.09;;;8.09;100.00
80393;BME280;69719;45.544;10.218;2024-01-07T04:36:56;98385.13;;;8.06;100.00
80393;BME280;69719;45.544;10.218;2024-01-07T04:39:21;98388.31;;;8.08;100.00
80393;BME280;69719;45.544;10.218;2024-01-07T04:41:46;98381.78;;;8.22;100.00
80393;BME280;69719;45.544;10.218;2024-01-07T04:44:12;98389.00;;;8.20;100.00
80393;BME280;69719;45.544;10.218;2024-01-07T04:46:38;98390.56;;;8.21;100.00
80393;BME280;69719;45.544;10.218;2024-01-07T04:49:04;98381.84;;;8.11;100.00
80393;BME280;69719;45.544;10.218;2024-01-07T04:51:31;98387.81;;;8.11;100.00
80393;BME280;69719;45.544;10.218;2024-01-07T04:53:57;98385.22;;;8.11;100.00
80393;BME280;69719;45.544;10.218;2024-01-07T04:56:22;98389.41;;;8.12;100.00
80393;BME280;69719;45.544;10.218;2024-01-07T04:58:48;98398.59;;;8.20;100.00
80393;BME280;69719;45.544;10.218;2024-01-07T05:01:14;98392.03;;;8.29;100.00
80393;BME280;69719;45.544;10.218;2024-01-07T05:03:39;98396.25;;;8.35;100.00
80393;BME280;69719;45.544;10.218;2024-01-07T05:06:07;98404.06;;;8.23;100.00
80393;BME280;69719;45.544;10.218;2024-01-07T05:08:33;98394.47;;;8.35;100.00
80393;BME280;69719;45.544;10.218;2024-01-07T05:10:58;98398.69;;;8.41;100.00
80393;BME280;69719;45.544;10.218;2024-01-07T05:13:24;98395.66;;;8.44;100.00
80393;BME280;69719;45.544;10.218;2024-01-07T05:15:50;98401.59;;;8.62;100.00
80393;BME280;69719;45.544;10.218;2024-01-07T05:18:23;98407.56;;;8.45;100.00
80393;BME280;69719;45.544;10.218;2024-01-07T05:20:49;98404.88;;;8.40;100.00
80393;BME280;69719;45.544;10.218;2024-01-07T05:23:15;98406.78;;;8.45;100.00
80393;BME280;69719;45.544;10.218;2024-01-07T05:25:45;98402.25;;;8.35;100.00
80393;BME280;69719;45.544;10.218;2024-01-07T05:28:14;98413.59;;;8.34;100.00
80393;BME280;69719;45.544;10.218;2024-01-07T05:30:40;98416.53;;;8.38;100.00
80393;BME280;69719;45.544;10.218;2024-01-07T05:33:06;98424.53;;;8.36;100.00
80393;BME280;69719;45.544;10.218;2024-01-07T05:35:32;98421.16;;;8.52;100.00
80393;BME280;69719;45.544;10.218;2024-01-07T05:37:57;98415.47;;;8.55;100.00
80393;BME280;69719;45.544;10.218;2024-01-07T05:40:23;98418.25;;;8.66;100.00
80393;BME280;69719;45.544;10.218;2024-01-07T05:42:49;98418.06;;;8.55;100.00
80393;BME280;69719;45.544;10.218;2024-01-07T05:45:15;98420.13;;;8.53;100.00
80393;BME280;69719;45.544;10.218;2024-01-07T05:47:40;98418.47;;;8.64;100.00
80393;BME280;69719;45.544;10.218;2024-01-07T05:50:07;98427.53;;;8.62;100.00
80393;BME280;69719;45.544;10.218;2024-01-07T05:52:32;98425.38;;;8.59;100.00
80393;BME280;69719;45.544;10.218;2024-01-07T05:54:58;98424.53;;;8.70;100.00
80393;BME280;69719;45.544;10.218;2024-01-07T05:57:23;98424.56;;;8.75;100.00
80393;BME280;69719;45.544;10.218;2024-01-07T05:59:49;98426.06;;;8.71;100.00
80393;BME280;69719;45.544;10.218;2024-01-07T06:02:16;98432.53;;;8.68;100.00
80393;BME280;69719;45.544;10.218;2024-01-07T06:04:42;98431.13;;;8.61;100.00
80393;BME280;69719;45.544;10.218;2024-01-07T06:07:08;98438.91;;;8.44;100.00
80393;BME280;69719;45.544;10.218;2024-01-07T06:09:34;98433.97;;;8.42;100.00
80393;BME280;69719;45.544;10.218;2024-01-07T06:11:59;98437.56;;;8.41;100.00
80393;BME280;69719;45.544;10.218;2024-01-07T06:14:25;98433.19;;;8.42;100.00
80393;BME280;69719;45.544;10.218;2024-01-07T06:16:50;98430.47;;;8.53;100.00
80393;BME280;69719;45.544;10.218;2024-01-07T06:19:19;98436.63;;;8.47;100.00
80393;BME280;69719;45.544;10.218;2024-01-07T06:21:45;98432.94;;;8.43;100.00
80393;BME280;69719;45.544;10.218;2024-01-07T06:24:11;98433.19;;;8.42;100.00
80393;BME280;69719;45.544;10.218;2024-01-07T06:26:36;98428.22;;;8.40;100.00
80393;BME280;69719;45.544;10.218;2024-01-07T06:29:02;98431.03;;;8.39;100.00
80393;BME280;69719;45.544;10.218;2024-01-07T06:31:28;98437.47;;;8.36;100.00
80393;BME280;69719;45.544;10.218;2024-01-07T06:33:53;98443.06;;;8.28;100.00
80393;BME280;69719;45.544;10.218;2024-01-07T06:36:21;98438.41;;;8.30;100.00
80393;BME280;69719;45.544;10.218;2024-01-07T06:38:47;98447.94;;;8.41;100.00
80393;BME280;69719;45.544;10.218;2024-01-07T06:41:14;98449.03;;;8.45;100.00
80393;BME280;69719;45.544;10.218;2024-01-07T06:43:39;98441.34;;;8.50;100.00
80393;BME280;69719;45.544;10.218;2024-01-07T06:46:05;98448.63;;;8.53;100.00
80393;BME280;69719;45.544;10.218;2024-01-07T06:48:31;98454.31;;;8.50;100.00
80393;BME280;69719;45.544;10.218;2024-01-07T06:50:57;98455.47;;;8.43;100.00
80393;BME280;69719;45.544;10.218;2024-01-07T06:53:23;98460.75;;;8.48;100.00
80393;BME280;69719;45.544;10.218;2024-01-07T06:55:49;98463.78;;;8.45;100.00
80393;BME280;69719;45.544;10.218;2024-01-07T06:58:14;98469.66;;;8.40;100.00
80393;BME280;69719;45.544;10.218;2024-01-07T07:00:40;98474.78;;;8.35;100.00
80393;BME280;69719;45.544;10.218;2024-01-07T07:03:06;98474.31;;;8.38;100.00
80393;BME280;69719;45.544;10.218;2024-01-07T07:05:31;98478.09;;;8.47;100.00
80393;BME280;69719;45.544;10.218;2024-01-07T07:07:57;98476.53;;;8.46;100.00
80393;BME280;69719;45.544;10.218;2024-01-07T07:10:22;98478.63;;;8.49;100.00
80393;BME280;69719;45.544;10.218;2024-01-07T07:12:48;98475.91;;;8.56;100.00
80393;BME280;69719;45.544;10.218;2024-01-07T07:15:16;98480.78;;;8.52;100.00
80393;BME280;69719;45.544;10.218;2024-01-07T07:17:41;98486.75;;;8.53;100.00
80393;BME280;69719;45.544;10.218;2024-01-07T07:20:08;98482.06;;;8.38;100.00
80393;BME280;69719;45.544;10.218;2024-01-07T07:22:33;98487.81;;;8.40;100.00
80393;BME280;69719;45.544;10.218;2024-01-07T07:24:59;98491.44;;;8.39;100.00
80393;BME280;69719;45.544;10.218;2024-01-07T07:27:24;98491.91;;;8.36;100.00
80393;BME280;69719;45.544;10.218;2024-01-07T07:29:50;98500.47;;;8.37;100.00
80393;BME280;69719;45.544;10.218;2024-01-07T07:32:15;98498.91;;;8.36;100.00
80393;BME280;69719;45.544;10.218;2024-01-07T07:34:41;98497.41;;;8.40;100.00
80393;BME280;69719;45.544;10.218;2024-01-07T07:37:06;98498.38;;;8.50;100.00
80393;BME280;69719;45.544;10.218;2024-01-07T07:39:32;98500.41;;;8.48;100.00
80393;BME280;69719;45.544;10.218;2024-01-07T07:41:57;98495.59;;;8.40;100.00
80393;BME280;69719;45.544;10.218;2024-01-07T07:44:23;98506.88;;;8.34;100.00
80393;BME280;69719;45.544;10.218;2024-01-07T07:46:48;98503.84;;;8.37;100.00
80393;BME280;69719;45.544;10.218;2024-01-07T07:49:14;98509.97;;;8.31;100.00
80393;BME280;69719;45.544;10.218;2024-01-07T07:51:40;98507.94;;;8.33;100.00
80393;BME280;69719;45.544;10.218;2024-01-07T07:54:06;98508.94;;;8.32;100.00
80393;BME280;69719;45.544;10.218;2024-01-07T07:56:32;98511.31;;;8.34;100.00
80393;BME280;69719;45.544;10.218;2024-01-07T07:58:57;98513.56;;;8.30;100.00
80393;BME280;69719;45.544;10.218;2024-01-07T08:01:23;98522.38;;;8.29;100.00
80393;BME280;69719;45.544;10.218;2024-01-07T08:03:49;98523.47;;;8.33;100.00
80393;BME280;69719;45.544;10.218;2024-01-07T08:06:14;98521.88;;;8.32;100.00
80393;BME280;69719;45.544;10.218;2024-01-07T08:08:40;98527.56;;;8.29;100.00
80393;BME280;69719;45.544;10.218;2024-01-07T08:11:06;98528.41;;;8.35;100.00
80393;BME280;69719;45.544;10.218;2024-01-07T08:13:35;98536.63;;;8.32;100.00
80393;BME280;69719;45.544;10.218;2024-01-07T08:16:01;98530.22;;;8.34;100.00
80393;BME280;69719;45.544;10.218;2024-01-07T08:18:26;98528.81;;;8.43;100.00
80393;BME280;69719;45.544;10.218;2024-01-07T08:20:52;98517.84;;;8.25;100.00
80393;BME280;69719;45.544;10.218;2024-01-07T08:23:17;98530.41;;;8.44;100.00
80393;BME280;69719;45.544;10.218;2024-01-07T08:25:43;98539.50;;;8.47;100.00
80393;BME280;69719;45.544;10.218;2024-01-07T08:28:10;98540.63;;;8.51;100.00
80393;BME280;69719;45.544;10.218;2024-01-07T08:30:35;98538.72;;;8.46;100.00
80393;BME280;69719;45.544;10.218;2024-01-07T08:33:01;98544.59;;;8.70;100.00
80393;BME280;69719;45.544;10.218;2024-01-07T08:35:26;98543.28;;;8.73;100.00
80393;BME280;69719;45.544;10.218;2024-01-07T08:37:52;98547.06;;;8.65;100.00
80393;BME280;69719;45.544;10.218;2024-01-07T08:40:17;98545.88;;;8.73;100.00
80393;BME280;69719;45.544;10.218;2024-01-07T08:42:44;98545.19;;;8.61;100.00
80393;BME280;69719;45.544;10.218;2024-01-07T08:45:10;98556.75;;;8.86;100.00
80393;BME280;69719;45.544;10.218;2024-01-07T08:47:36;98554.16;;;8.70;100.00
80393;BME280;69719;45.544;10.218;2024-01-07T08:50:02;98556.25;;;8.73;100.00
80393;BME280;69719;45.544;10.218;2024-01-07T08:52:28;98556.75;;;8.86;100.00
80393;BME280;69719;45.544;10.218;2024-01-07T08:54:54;98553.22;;;8.76;100.00
80393;BME280;69719;45.544;10.218;2024-01-07T08:57:20;98563.84;;;8.91;100.00
80393;BME280;69719;45.544;10.218;2024-01-07T08:59:46;98568.16;;;9.02;100.00
80393;BME280;69719;45.544;10.218;2024-01-07T09:02:12;98569.09;;;8.79;100.00
80393;BME280;69719;45.544;10.218;2024-01-07T09:04:37;98562.34;;;8.95;100.00
80393;BME280;69719;45.544;10.218;2024-01-07T09:07:03;98565.63;;;9.07;100.00
80393;BME280;69719;45.544;10.218;2024-01-07T09:09:29;98568.22;;;8.90;100.00
80393;BME280;69719;45.544;10.218;2024-01-07T09:11:55;98570.28;;;8.88;100.00
80393;BME280;69719;45.544;10.218;2024-01-07T09:14:22;98573.66;;;8.89;100.00
80393;BME280;69719;45.544;10.218;2024-01-07T09:16:50;98573.16;;;8.92;100.00
80393;BME280;69719;45.544;10.218;2024-01-07T09:19:15;98582.53;;;8.93;100.00
80393;BME280;69719;45.544;10.218;2024-01-07T09:21:41;98580.75;;;8.93;100.00
80393;BME280;69719;45.544;10.218;2024-01-07T09:24:06;98583.09;;;8.95;100.00
80393;BME280;69719;45.544;10.218;2024-01-07T09:26:33;98584.81;;;8.89;100.00
80393;BME280;69719;45.544;10.218;2024-01-07T09:28:59;98582.00;;;8.91;100.00
80393;BME280;69719;45.544;10.218;2024-01-07T09:31:24;98583.88;;;8.95;100.00
80393;BME280;69719;45.544;10.218;2024-01-07T09:33:50;98578.06;;;8.88;100.00
80393;BME280;69719;45.544;10.218;2024-01-07T09:36:15;98569.47;;;8.88;100.00
80393;BME280;69719;45.544;10.218;2024-01-07T09:38:41;98579.88;;;9.21;100.00
80393;BME280;69719;45.544;10.218;2024-01-07T09:41:07;98584.19;;;8.99;100.00
80393;BME280;69719;45.544;10.218;2024-01-07T09:43:33;98587.31;;;9.17;100.00
80393;BME280;69719;45.544;10.218;2024-01-07T09:45:59;98590.09;;;9.11;100.00
80393;BME280;69719;45.544;10.218;2024-01-07T09:48:25;98586.06;;;8.87;100.00
80393;BME280;69719;45.544;10.218;2024-01-07T09:50:52;98594.56;;;8.82;100.00
80393;BME280;69719;45.544;10.218;2024-01-07T09:53:19;98587.66;;;9.04;100.00
80393;BME280;69719;45.544;10.218;2024-01-07T09:55:52;98590.16;;;8.99;100.00
80393;BME280;69719;45.544;10.218;2024-01-07T09:58:22;98590.31;;;8.93;100.00
80393;BME280;69719;45.544;10.218;2024-01-07T10:00:47;98589.53;;;9.25;100.00
80393;BME280;69719;45.544;10.218;2024-01-07T10:03:13;98591.47;;;9.35;100.00
80393;BME280;69719;45.544;10.218;2024-01-07T10:05:39;98592.75;;;9.16;100.00
80393;BME280;69719;45.544;10.218;2024-01-07T10:08:05;98594.50;;;8.94;100.00
80393;BME280;69719;45.544;10.218;2024-01-07T10:10:31;98595.50;;;8.93;100.00
80393;BME280;69719;45.544;10.218;2024-01-07T10:12:57;98591.72;;;9.00;100.00
80393;BME280;69719;45.544;10.218;2024-01-07T10:15:23;98591.03;;;8.88;100.00
80393;BME280;69719;45.544;10.218;2024-01-07T10:17:48;98600.78;;;8.98;100.00
80393;BME280;69719;45.544;10.218;2024-01-07T10:20:16;98598.56;;;8.90;100.00
80393;BME280;69719;45.544;10.218;2024-01-07T10:22:46;98598.19;;;8.98;100.00
80393;BME280;69719;45.544;10.218;2024-01-07T10:25:14;98594.41;;;8.89;100.00
80393;BME280;69719;45.544;10.218;2024-01-07T10:27:39;98592.81;;;8.88;100.00
80393;BME280;69719;45.544;10.218;2024-01-07T10:30:05;98590.31;;;8.93;100.00
80393;BME280;69719;45.544;10.218;2024-01-07T10:32:31;98587.81;;;8.98;100.00
80393;BME280;69719;45.544;10.218;2024-01-07T10:35:04;98590.88;;;8.95;100.00
80393;BME280;69719;45.544;10.218;2024-01-07T10:37:30;98591.41;;;8.97;100.00
80393;BME280;69719;45.544;10.218;2024-01-07T10:40:00;98594.25;;;8.95;100.00
80393;BME280;69719;45.544;10.218;2024-01-07T10:42:32;98597.94;;;8.83;100.00
80393;BME280;69719;45.544;10.218;2024-01-07T10:44:59;98597.16;;;8.82;100.00
80393;BME280;69719;45.544;10.218;2024-01-07T10:47:30;98594.88;;;8.86;100.00
80393;BME280;69719;45.544;10.218;2024-01-07T10:49:57;98598.56;;;8.90;100.00
80393;BME280;69719;45.544;10.218;2024-01-07T10:52:24;98598.66;;;8.95;100.00
80393;BME280;69719;45.544;10.218;2024-01-07T10:54:52;98598.66;;;8.95;100.00
80393;BME280;69719;45.544;10.218;2024-01-07T10:57:24;98597.56;;;8.91;100.00
80393;BME280;69719;45.544;10.218;2024-01-07T10:59:53;98595.97;;;8.90;100.00
80393;BME280;69719;45.544;10.218;2024-01-07T11:02:20;98599.75;;;8.99;100.00
80393;BME280;69719;45.544;10.218;2024-01-07T11:04:56;98597.66;;;8.96;100.00
80393;BME280;69719;45.544;10.218;2024-01-07T11:07:35;98596.44;;;9.03;100.00
80393;BME280;69719;45.544;10.218;2024-01-07T11:10:10;98590.16;;;8.99;100.00
80393;BME280;69719;45.544;10.218;2024-01-07T11:12:37;98590.47;;;9.03;100.00
80393;BME280;69719;45.544;10.218;2024-01-07T11:15:04;98589.06;;;9.12;100.00
80393;BME280;69719;45.544;10.218;2024-01-07T11:17:39;98589.84;;;9.12;100.00
80393;BME280;69719;45.544;10.218;2024-01-07T11:20:26;98591.09;;;9.10;100.00
80393;BME280;69719;45.544;10.218;2024-01-07T11:22:52;98586.94;;;9.09;100.00
80393;BME280;69719;45.544;10.218;2024-01-07T11:25:31;98582.53;;;9.09;100.00
80393;BME280;69719;45.544;10.218;2024-01-07T11:27:58;98578.53;;;9.02;100.00
80393;BME280;69719;45.544;10.218;2024-01-07T11:30:24;98581.81;;;9.14;100.00
80393;BME280;69719;45.544;10.218;2024-01-07T11:32:59;98575.44;;;9.05;100.00
80393;BME280;69719;45.544;10.218;2024-01-07T11:38:18;98564.53;;;9.03;100.00
80393;BME280;69719;45.544;10.218;2024-01-07T11:40:45;98578.53;;;9.02;100.00
80393;BME280;69719;45.544;10.218;2024-01-07T11:43:12;98579.34;;;9.02;100.00
80393;BME280;69719;45.544;10.218;2024-01-07T11:45:37;98570.50;;;9.03;100.00
80393;BME280;69719;45.544;10.218;2024-01-07T11:48:04;98576.34;;;9.10;100.00
80393;BME280;69719;45.544;10.218;2024-01-07T11:50:31;98587.56;;;9.16;100.00
80393;BME280;69719;45.544;10.218;2024-01-07T11:52:56;98583.25;;;9.21;100.00
80393;BME280;69719;45.544;10.218;2024-01-07T11:55:22;98574.13;;;9.19;100.00
80393;BME280;69719;45.544;10.218;2024-01-07T11:57:48;98575.38;;;9.16;100.00
80393;BME280;69719;45.544;10.218;2024-01-07T12:00:14;98577.81;;;9.23;100.00
80393;BME280;69719;45.544;10.218;2024-01-07T12:02:40;98584.34;;;9.25;100.00
80393;BME280;69719;45.544;10.218;2024-01-07T12:05:05;98584.19;;;9.32;100.00
80393;BME280;69719;45.544;10.218;2024-01-07T12:07:31;98583.00;;;9.40;100.00
80393;BME280;69719;45.544;10.218;2024-01-07T12:09:57;98577.09;;;9.44;100.00
80393;BME280;69719;45.544;10.218;2024-01-07T12:12:23;98574.69;;;9.59;100.00
80393;BME280;69719;45.544;10.218;2024-01-07T12:14:49;98576.03;;;9.62;100.00
80393;BME280;69719;45.544;10.218;2024-01-07T12:17:18;98568.28;;;9.45;100.00
80393;BME280;69719;45.544;10.218;2024-01-07T12:19:44;98582.81;;;9.46;100.00
80393;BME280;69719;45.544;10.218;2024-01-07T12:22:10;98571.72;;;9.51;100.00
80393;BME280;69719;45.544;10.218;2024-01-07T12:24:35;98569.66;;;9.53;100.00
80393;BME280;69719;45.544;10.218;2024-01-07T12:27:07;98575.25;;;9.61;100.00
80393;BME280;69719;45.544;10.218;2024-01-07T12:29:33;98564.69;;;9.68;100.00
80393;BME280;69719;45.544;10.218;2024-01-07T12:31:59;98575.44;;;9.76;100.00
80393;BME280;69719;45.544;10.218;2024-01-07T12:34:25;98573.22;;;9.85;100.00
80393;BME280;69719;45.544;10.218;2024-01-07T12:36:51;98577.97;;;9.71;100.00
80393;BME280;69719;45.544;10.218;2024-01-07T12:39:20;98564.44;;;9.69;100.00
80393;BME280;69719;45.544;10.218;2024-01-07T12:41:45;98571.81;;;9.77;100.00
80393;BME280;69719;45.544;10.218;2024-01-07T12:44:12;98565.47;;;9.68;100.00
80393;BME280;69719;45.544;10.218;2024-01-07T12:46:38;98563.34;;;9.65;100.00
80393;BME280;69719;45.544;10.218;2024-01-07T12:49:03;98562.00;;;9.63;100.00